Wetterdaten: Woche 17.02.14 - 23.02.14 (KW8)
Datum Zeit Temp. A. Feuchte A. Luftdruck Regen Wind Richtung Taupunkt Windchill Windben
17.02.2014 00:00 5,7 C 75 % 1015,9 hPa 0,0 l/m 0,3 km/h N 1,7 C 5,7 C 3,6 km/h
17.02.2014 01:00 5,0 C 78 % 1016,1 hPa 0,0 l/m 0,2 km/h N 1,5 C 5,0 C 1,6 km/h
17.02.2014 02:00 4,4 C 80 % 1015,6 hPa 0,0 l/m 0,4 km/h N 1,4 C 4,4 C 1,6 km/h
17.02.2014 03:00 4,4 C 81 % 1015,5 hPa 0,0 l/m 0,0 km/h N 1,4 C 4,4 C 1,2 km/h
17.02.2014 04:00 4,2 C 82 % 1016,0 hPa 0,0 l/m 0,1 km/h N 1,3 C 4,2 C 1,6 km/h
17.02.2014 05:00 4,0 C 82 % 1016,0 hPa 0,0 l/m 0,0 km/h N 1,2 C 4,0 C 0,0 km/h
17.02.2014 06:00 3,1 C 83 % 1016,1 hPa 0,0 l/m 0,0 km/h N 0,4 C 3,1 C 0,4 km/h
17.02.2014 07:00 2,8 C 85 % 1016,7 hPa 0,0 l/m 0,1 km/h N 0,4 C 2,8 C 1,2 km/h
17.02.2014 08:00 3,6 C 85 % 1017,2 hPa 0,0 l/m 0,1 km/h N 1,3 C 3,6 C 1,6 km/h
17.02.2014 09:00 4,7 C 85 % 1017,4 hPa 0,0 l/m 0,3 km/h N 2,4 C 4,7 C 2,8 km/h
17.02.2014 10:00 5,9 C 83 % 1017,5 hPa 0,0 l/m 0,0 km/h N 3,2 C 5,9 C 0,4 km/h
17.02.2014 11:00 7,2 C 78 % 1017,7 hPa 0,0 l/m 0,5 km/h N 3,6 C 7,2 C 4,0 km/h
17.02.2014 12:00 7,6 C 75 % 1017,5 hPa 0,0 l/m 0,8 km/h N 3,4 C 7,6 C 4,8 km/h
17.02.2014 13:00 7,7 C 77 % 1017,5 hPa 0,3 l/m 1,9 km/h N 3,9 C 7,7 C 7,2 km/h
17.02.2014 14:00 7,8 C 76 % 1017,5 hPa 0,0 l/m 1,5 km/h N 3,9 C 7,8 C 6,0 km/h
17.02.2014 15:00 7,9 C 78 % 1017,7 hPa 0,0 l/m 2,4 km/h N 4,2 C 7,9 C 8,0 km/h
17.02.2014 16:00 7,5 C 78 % 1017,8 hPa 0,0 l/m 1,5 km/h N 3,9 C 7,5 C 6,0 km/h
17.02.2014 17:00 6,9 C 80 % 1018,3 hPa 0,0 l/m 0,5 km/h N 3,6 C 6,9 C 3,2 km/h
17.02.2014 18:00 6,2 C 81 % 1019,2 hPa 0,0 l/m 0,1 km/h N 3,3 C 6,2 C 0,8 km/h
17.02.2014 19:00 5,9 C 83 % 1019,5 hPa 0,0 l/m 0,1 km/h N 3,2 C 5,9 C 0,8 km/h
17.02.2014 20:00 5,4 C 84 % 1019,8 hPa 0,0 l/m 0,2 km/h N 2,8 C 5,4 C 3,2 km/h
17.02.2014 21:00 5,0 C 84 % 1020,0 hPa 0,0 l/m 0,0 km/h N 2,5 C 5,0 C 0,4 km/h
17.02.2014 22:00 4,0 C 85 % 1020,4 hPa 0,0 l/m 0,0 km/h N 1,6 C 4,0 C 0,4 km/h
17.02.2014 23:00 2,9 C 85 % 1020,4 hPa 0,0 l/m 0,1 km/h N 0,7 C 2,9 C 1,2 km/h
18.02.2014 00:00 2,0 C 86 % 1020,8 hPa 0,0 l/m 0,2 km/h N -0,2 C 2,0 C 2,0 km/h
18.02.2014 01:00 1,1 C 86 % 1021,1 hPa 0,0 l/m 0,0 km/h N -0,9 C 1,1 C 0,4 km/h
18.02.2014 02:00 -0,1 C 86 % 1021,4 hPa 0,0 l/m 0,0 km/h N -2,2 C -0,1 C 0,0 km/h
18.02.2014 03:00 -0,7 C 88 % 1021,5 hPa 0,0 l/m 0,0 km/h N -2,5 C -0,7 C 0,0 km/h
18.02.2014 04:00 -1,2 C 88 % 1022,0 hPa 0,0 l/m 0,0 km/h N -3,0 C -1,2 C 0,0 km/h
18.02.2014 05:00 -1,5 C 85 % 1022,1 hPa 0,0 l/m 0,0 km/h N -3,7 C -1,5 C 0,4 km/h
18.02.2014 06:00 -1,7 C 85 % 1021,8 hPa 0,0 l/m 0,1 km/h N -3,9 C -1,7 C 0,8 km/h
18.02.2014 07:00 -1,8 C 85 % 1022,3 hPa 0,0 l/m 0,0 km/h N -4,0 C -1,8 C 0,0 km/h
18.02.2014 08:00 -0,3 C 82 % 1022,3 hPa 0,0 l/m 0,0 km/h N -2,9 C -0,3 C 0,4 km/h
18.02.2014 09:00 2,5 C 81 % 1022,0 hPa 0,0 l/m 1,4 km/h N -0,4 C 2,5 C 6,4 km/h
18.02.2014 10:00 3,9 C 84 % 1021,8 hPa 0,0 l/m 2,4 km/h N 1,4 C 3,9 C 8,4 km/h
18.02.2014 11:00 5,4 C 83 % 1021,5 hPa 0,0 l/m 5,0 km/h N 2,7 C 4,6 C 16,1 km/h
18.02.2014 12:00 4,7 C 84 % 1020,9 hPa 0,0 l/m 7,8 km/h N 2,3 C 3,5 C 23,3 km/h
18.02.2014 13:00 5,3 C 84 % 1019,8 hPa 0,0 l/m 7,2 km/h N 2,8 C 4,4 C 21,7 km/h
18.02.2014 14:00 5,5 C 83 % 1019,3 hPa 0,0 l/m 8,3 km/h N 2,8 C 3,9 C 21,3 km/h
18.02.2014 15:00 6,0 C 83 % 1018,4 hPa 0,0 l/m 6,5 km/h N 3,3 C 5,6 C 19,7 km/h
18.02.2014 16:00 5,9 C 81 % 1017,8 hPa 0,0 l/m 8,0 km/h N 3,0 C 4,6 C 20,5 km/h
18.02.2014 17:00 5,3 C 82 % 1017,8 hPa 0,0 l/m 7,5 km/h N 2,5 C 3,9 C 18,5 km/h
18.02.2014 18:00 4,8 C 83 % 1017,7 hPa 0,0 l/m 1,6 km/h N 2,1 C 4,8 C 4,8 km/h
18.02.2014 19:00 3,7 C 83 % 1017,3 hPa 0,0 l/m 0,0 km/h N 1,1 C 3,7 C 0,0 km/h
18.02.2014 20:00 2,8 C 85 % 1017,1 hPa 0,0 l/m 0,0 km/h N 0,4 C 2,8 C 0,0 km/h
18.02.2014 21:00 2,4 C 86 % 1016,8 hPa 0,0 l/m 0,0 km/h N 0,2 C 2,4 C 0,0 km/h
18.02.2014 22:00 1,9 C 86 % 1016,6 hPa 0,0 l/m 0,1 km/h N -0,2 C 1,9 C 0,8 km/h
18.02.2014 23:00 2,0 C 85 % 1016,4 hPa 0,0 l/m 0,1 km/h N -0,2 C 2,0 C 0,4 km/h
19.02.2014 00:00 2,2 C 84 % 1016,1 hPa 0,0 l/m 0,3 km/h N -0,2 C 2,2 C 2,4 km/h
19.02.2014 01:00 2,7 C 83 % 1015,4 hPa 0,0 l/m 0,4 km/h N 0,1 C 2,7 C 3,2 km/h
19.02.2014 02:00 3,0 C 83 % 1014,8 hPa 0,0 l/m 0,9 km/h N 0,4 C 3,0 C 5,2 km/h
19.02.2014 03:00 3,0 C 83 % 1014,1 hPa 0,0 l/m 0,6 km/h N 0,4 C 3,0 C 3,2 km/h
19.02.2014 04:00 3,2 C 83 % 1013,7 hPa 0,0 l/m 1,1 km/h N 0,5 C 3,2 C 5,2 km/h
19.02.2014 05:00 3,6 C 83 % 1013,2 hPa 0,0 l/m 1,0 km/h N 1,0 C 3,6 C 5,2 km/h
19.02.2014 06:00 3,6 C 84 % 1013,0 hPa 0,0 l/m 1,5 km/h N 1,1 C 3,6 C 6,0 km/h
19.02.2014 07:00 3,8 C 84 % 1013,7 hPa 0,0 l/m 2,4 km/h N 1,3 C 3,8 C 7,6 km/h
19.02.2014 08:00 3,7 C 85 % 1014,5 hPa 0,0 l/m 7,8 km/h N 1,3 C 2,5 C 21,3 km/h
19.02.2014 09:00 4,4 C 86 % 1015,0 hPa 0,0 l/m 2,9 km/h N 2,2 C 4,4 C 9,3 km/h
19.02.2014 10:00 5,3 C 85 % 1014,6 hPa 0,0 l/m 4,6 km/h N 3,0 C 5,3 C 12,5 km/h
19.02.2014 11:00 6,1 C 84 % 1015,1 hPa 0,0 l/m 1,1 km/h N 3,5 C 6,1 C 6,0 km/h
19.02.2014 12:00 7,2 C 80 % 1015,0 hPa 0,0 l/m 4,6 km/h N 3,9 C 7,0 C 14,1 km/h
19.02.2014 13:00 8,2 C 74 % 1014,8 hPa 0,0 l/m 5,4 km/h N 3,9 C 8,1 C 17,7 km/h
19.02.2014 14:00 7,8 C 77 % 1014,4 hPa 0,0 l/m 4,4 km/h N 3,9 C 7,8 C 12,1 km/h
19.02.2014 15:00 7,6 C 78 % 1014,4 hPa 0,5 l/m 5,2 km/h N 4,1 C 7,1 C 17,3 km/h
19.02.2014 16:00 7,0 C 82 % 1014,6 hPa 0,5 l/m 4,8 km/h N 4,2 C 7,0 C 15,7 km/h
19.02.2014 17:00 6,7 C 84 % 1014,8 hPa 0,0 l/m 2,1 km/h N 4,2 C 6,7 C 9,3 km/h
19.02.2014 18:00 6,7 C 83 % 1015,1 hPa 0,5 l/m 4,3 km/h N 4,0 C 6,6 C 14,5 km/h
19.02.2014 19:00 6,4 C 85 % 1015,5 hPa 1,8 l/m 3,0 km/h N 3,9 C 6,4 C 12,9 km/h
19.02.2014 20:00 6,1 C 85 % 1015,8 hPa 0,8 l/m 7,1 km/h N 3,7 C 5,4 C 19,3 km/h
19.02.2014 21:00 6,2 C 85 % 1016,0 hPa 0,0 l/m 7,7 km/h N 3,8 C 5,1 C 19,3 km/h
19.02.2014 22:00 6,3 C 84 % 1016,0 hPa 0,3 l/m 7,0 km/h N 3,7 C 5,2 C 18,5 km/h
19.02.2014 23:00 6,6 C 82 % 1015,9 hPa 0,0 l/m 6,2 km/h N 3,8 C 6,3 C 16,1 km/h
20.02.2014 00:00 6,7 C 81 % 1016,2 hPa 0,0 l/m 3,8 km/h N 3,7 C 6,7 C 11,7 km/h
20.02.2014 01:00 6,8 C 80 % 1015,8 hPa 0,0 l/m 8,0 km/h N 3,7 C 5,5 C 21,3 km/h
20.02.2014 02:00 6,7 C 80 % 1016,0 hPa 0,0 l/m 5,5 km/h N 3,5 C 6,7 C 14,1 km/h
20.02.2014 03:00 6,6 C 80 % 1016,2 hPa 0,0 l/m 5,8 km/h N 3,4 C 6,4 C 15,3 km/h
20.02.2014 04:00 6,8 C 79 % 1016,3 hPa 0,0 l/m 7,2 km/h N 3,5 C 6,2 C 19,7 km/h
20.02.2014 05:00 6,9 C 79 % 1016,5 hPa 0,0 l/m 6,0 km/h N 3,6 C 6,6 C 16,1 km/h
20.02.2014 06:00 6,6 C 80 % 1016,6 hPa 0,0 l/m 1,5 km/h N 3,4 C 6,6 C 5,6 km/h
20.02.2014 07:00 6,6 C 81 % 1017,0 hPa 0,0 l/m 1,5 km/h N 3,5 C 6,6 C 7,6 km/h
20.02.2014 08:00 7,0 C 80 % 1017,2 hPa 0,0 l/m 2,6 km/h N 3,8 C 7,0 C 10,1 km/h
20.02.2014 09:00 8,0 C 78 % 1017,5 hPa 0,0 l/m 0,8 km/h N 4,4 C 8,0 C 6,0 km/h
20.02.2014 10:00 9,4 C 72 % 1017,4 hPa 0,0 l/m 4,6 km/h N 4,6 C 9,4 C 13,3 km/h
20.02.2014 11:00 10,7 C 64 % 1017,1 hPa 0,0 l/m 4,1 km/h N 4,2 C 10,7 C 11,3 km/h
20.02.2014 12:00 11,5 C 61 % 1016,3 hPa 0,0 l/m 1,1 km/h N 4,3 C 11,5 C 6,0 km/h
20.02.2014 13:00 11,9 C 62 % 1015,7 hPa 0,0 l/m 1,2 km/h N 4,8 C 11,9 C 8,0 km/h
20.02.2014 14:00 11,7 C 61 % 1015,4 hPa 0,0 l/m 1,0 km/h N 4,4 C 11,7 C 6,8 km/h
20.02.2014 15:00 11,9 C 61 % 1015,2 hPa 0,0 l/m 2,3 km/h N 4,5 C 11,9 C 8,4 km/h
20.02.2014 16:00 11,5 C 60 % 1015,0 hPa 0,0 l/m 3,5 km/h N 4,0 C 11,5 C 10,9 km/h
20.02.2014 17:00 10,1 C 63 % 1015,0 hPa 0,0 l/m 2,5 km/h N 3,3 C 10,1 C 10,5 km/h
20.02.2014 18:00 8,2 C 71 % 1015,1 hPa 0,0 l/m 0,3 km/h N 3,2 C 8,2 C 4,4 km/h
20.02.2014 19:00 6,3 C 76 % 1014,9 hPa 0,0 l/m 0,0 km/h N 2,5 C 6,3 C 1,6 km/h
20.02.2014 20:00 4,2 C 80 % 1014,9 hPa 0,0 l/m 0,1 km/h N 0,9 C 4,2 C 1,2 km/h
20.02.2014 21:00 4,4 C 85 % 1014,6 hPa 0,0 l/m 0,4 km/h N 2,0 C 4,4 C 3,2 km/h
20.02.2014 22:00 3,4 C 84 % 1014,2 hPa 0,0 l/m 0,0 km/h N 1,0 C 3,4 C 0,0 km/h
20.02.2014 23:00 4,0 C 85 % 1013,5 hPa 0,0 l/m 1,8 km/h N 1,7 C 4,0 C 6,8 km/h
21.02.2014 00:00 5,0 C 83 % 1013,0 hPa 0,0 l/m 4,5 km/h N 2,2 C 5,0 C 11,3 km/h
21.02.2014 01:00 5,1 C 79 % 1012,5 hPa 0,0 l/m 1,8 km/h N 1,7 C 5,1 C 6,8 km/h
21.02.2014 02:00 4,3 C 82 % 1012,1 hPa 0,0 l/m 0,9 km/h N 1,5 C 4,3 C 4,8 km/h
21.02.2014 03:00 4,5 C 82 % 1011,5 hPa 0,0 l/m 0,5 km/h N 1,6 C 4,5 C 5,2 km/h
21.02.2014 04:00 4,9 C 82 % 1011,3 hPa 0,0 l/m 1,4 km/h N 2,1 C 4,9 C 8,8 km/h
21.02.2014 05:00 4,2 C 80 % 1011,5 hPa 0,0 l/m 0,0 km/h N 1,1 C 4,2 C 0,8 km/h
21.02.2014 06:00 2,4 C 82 % 1011,7 hPa 0,0 l/m 0,0 km/h N -0,3 C 2,4 C 0,4 km/h
21.02.2014 07:00 1,0 C 84 % 1012,1 hPa 0,0 l/m 0,0 km/h N -1,3 C 1,0 C 0,4 km/h
21.02.2014 08:00 0,9 C 86 % 1012,5 hPa 0,0 l/m 0,0 km/h N -1,3 C 0,9 C 0,8 km/h
21.02.2014 09:00 2,3 C 84 % 1012,7 hPa 0,0 l/m 0,1 km/h N -0,1 C 2,3 C 0,4 km/h
21.02.2014 10:00 4,0 C 83 % 1012,7 hPa 0,0 l/m 0,2 km/h N 1,4 C 4,0 C 1,6 km/h
21.02.2014 11:00 6,8 C 84 % 1012,3 hPa 0,0 l/m 0,9 km/h N 4,3 C 6,8 C 4,8 km/h
21.02.2014 12:00 10,2 C 74 % 1011,5 hPa 0,0 l/m 2,8 km/h N 5,7 C 10,2 C 10,4 km/h
21.02.2014 13:00 11,1 C 69 % 1010,7 hPa 0,0 l/m 4,2 km/h N 5,7 C 11,1 C 13,3 km/h
21.02.2014 14:00 12,0 C 68 % 1010,2 hPa 0,0 l/m 2,8 km/h N 6,3 C 12,0 C 11,3 km/h
21.02.2014 15:00 11,0 C 72 % 1010,2 hPa 0,0 l/m 6,6 km/h N 6,1 C 10,4 C 16,1 km/h
21.02.2014 16:00 9,8 C 78 % 1010,5 hPa 0,0 l/m 4,5 km/h N 6,1 C 9,8 C 14,5 km/h
21.02.2014 17:00 8,4 C 82 % 1011,0 hPa 0,0 l/m 2,5 km/h N 5,4 C 8,4 C 12,1 km/h
21.02.2014 18:00 7,4 C 84 % 1011,8 hPa 0,0 l/m 0,0 km/h N 4,8 C 7,4 C 1,2 km/h
21.02.2014 19:00 7,2 C 85 % 1012,1 hPa 0,0 l/m 0,0 km/h N 4,8 C 7,2 C 0,8 km/h
21.02.2014 20:00 7,0 C 85 % 1012,4 hPa 0,0 l/m 0,0 km/h N 4,6 C 7,0 C 0,0 km/h
21.02.2014 21:00 6,7 C 85 % 1012,7 hPa 0,0 l/m 0,0 km/h N 4,3 C 6,7 C 0,0 km/h
21.02.2014 22:00 5,4 C 85 % 1013,0 hPa 0,0 l/m 0,1 km/h N 3,1 C 5,4 C 1,6 km/h
21.02.2014 23:00 6,1 C 85 % 1012,9 hPa 0,0 l/m 2,7 km/h N 3,7 C 6,1 C 11,6 km/h
22.02.2014 00:00 7,5 C 80 % 1013,0 hPa 0,0 l/m 8,0 km/h N 4,3 C 6,3 C 18,9 km/h
22.02.2014 01:00 7,2 C 80 % 1013,3 hPa 0,0 l/m 7,9 km/h N 3,9 C 6,1 C 19,7 km/h
22.02.2014 02:00 7,1 C 80 % 1013,4 hPa 0,0 l/m 7,8 km/h N 3,9 C 6,1 C 20,9 km/h
22.02.2014 03:00 7,2 C 79 % 1013,3 hPa 0,0 l/m 5,9 km/h N 3,7 C 7,1 C 16,5 km/h
22.02.2014 04:00 7,1 C 78 % 1013,5 hPa 0,0 l/m 7,3 km/h N 3,6 C 6,0 C 18,9 km/h
22.02.2014 05:00 6,9 C 78 % 1013,9 hPa 0,0 l/m 7,8 km/h N 3,4 C 5,8 C 20,1 km/h
22.02.2014 06:00 6,8 C 78 % 1014,2 hPa 0,0 l/m 6,1 km/h N 3,3 C 6,8 C 17,3 km/h
22.02.2014 07:00 6,7 C 78 % 1014,8 hPa 0,0 l/m 7,5 km/h N 3,2 C 5,8 C 18,9 km/h
22.02.2014 08:00 6,8 C 77 % 1015,3 hPa 0,0 l/m 8,3 km/h N 3,1 C 5,3 C 20,5 km/h
22.02.2014 09:00 7,1 C 76 % 1015,8 hPa 0,0 l/m 9,1 km/h N 3,2 C 5,0 C 22,9 km/h
22.02.2014 10:00 7,3 C 76 % 1016,2 hPa 0,0 l/m 10,4 km/h N 3,3 C 4,3 C 23,7 km/h
22.02.2014 11:00 7,6 C 75 % 1016,4 hPa 0,0 l/m 9,1 km/h N 3,4 C 5,5 C 22,5 km/h
22.02.2014 12:00 7,8 C 74 % 1016,3 hPa 0,0 l/m 9,9 km/h N 3,5 C 5,2 C 23,7 km/h
22.02.2014 13:00 8,2 C 72 % 1015,9 hPa 0,0 l/m 9,5 km/h N 3,4 C 6,0 C 21,3 km/h
22.02.2014 14:00 7,9 C 73 % 1016,2 hPa 0,0 l/m 10,1 km/h N 3,2 C 5,2 C 22,9 km/h
22.02.2014 15:00 7,3 C 75 % 1016,6 hPa 0,0 l/m 9,1 km/h N 3,1 C 5,3 C 22,1 km/h
22.02.2014 16:00 7,2 C 74 % 1016,8 hPa 0,0 l/m 9,1 km/h N 2,9 C 5,2 C 20,9 km/h
22.02.2014 17:00 6,9 C 73 % 1017,5 hPa 0,0 l/m 6,6 km/h N 2,3 C 6,6 C 19,3 km/h
22.02.2014 18:00 6,7 C 71 % 1018,4 hPa 0,0 l/m 8,8 km/h N 1,8 C 4,8 C 23,7 km/h
22.02.2014 19:00 6,5 C 71 % 1018,9 hPa 0,0 l/m 4,0 km/h N 1,6 C 6,5 C 12,5 km/h
22.02.2014 20:00 6,2 C 70 % 1019,3 hPa 0,0 l/m 5,6 km/h N 1,1 C 5,8 C 16,5 km/h
22.02.2014 21:00 6,0 C 69 % 1019,6 hPa 0,0 l/m 5,7 km/h N 0,8 C 5,9 C 15,3 km/h
22.02.2014 22:00 5,8 C 72 % 1019,9 hPa 0,0 l/m 5,0 km/h N 1,2 C 5,7 C 14,5 km/h
22.02.2014 23:00 5,9 C 73 % 1020,0 hPa 0,0 l/m 7,8 km/h N 1,5 C 4,7 C 19,3 km/h
23.02.2014 00:00 6,0 C 73 % 1020,3 hPa 0,0 l/m 7,8 km/h N 1,5 C 4,8 C 18,9 km/h
23.02.2014 01:00 5,9 C 71 % 1020,7 hPa 0,0 l/m 7,8 km/h N 1,1 C 4,7 C 19,3 km/h
23.02.2014 02:00 5,9 C 70 % 1021,0 hPa 0,0 l/m 8,9 km/h N 0,8 C 3,8 C 20,1 km/h
23.02.2014 03:00 5,7 C 69 % 1021,4 hPa 0,0 l/m 9,6 km/h N 0,4 C 3,1 C 24,1 km/h
23.02.2014 04:00 5,4 C 68 % 1022,0 hPa 0,0 l/m 10,2 km/h N -0,1 C 2,5 C 23,3 km/h
23.02.2014 05:00 5,4 C 68 % 1022,5 hPa 0,0 l/m 9,9 km/h N -0,1 C 2,5 C 23,7 km/h
23.02.2014 06:00 5,3 C 68 % 1022,9 hPa 0,0 l/m 10,1 km/h N -0,2 C 2,3 C 23,3 km/h
23.02.2014 07:00 5,4 C 67 % 1023,5 hPa 0,0 l/m 9,8 km/h N -0,2 C 2,7 C 24,1 km/h
23.02.2014 08:00 6,1 C 65 % 1023,8 hPa 0,0 l/m 11,3 km/h N -0,0 C 2,5 C 24,5 km/h
23.02.2014 09:00 7,0 C 63 % 1024,1 hPa 0,0 l/m 9,6 km/h N 0,5 C 4,6 C 22,9 km/h
23.02.2014 10:00 8,8 C 58 % 1024,4 hPa 0,0 l/m 8,2 km/h N 0,9 C 7,4 C 19,7 km/h
23.02.2014 11:00 9,9 C 53 % 1024,6 hPa 0,0 l/m 8,4 km/h N 0,9 C 8,6 C 22,5 km/h
23.02.2014 12:00 10,6 C 49 % 1024,2 hPa 0,0 l/m 8,2 km/h N 0,3 C 9,4 C 20,9 km/h
23.02.2014 13:00 10,7 C 50 % 1023,7 hPa 0,0 l/m 8,6 km/h N 0,6 C 9,3 C 21,7 km/h
23.02.2014 14:00 11,0 C 45 % 1023,3 hPa 0,0 l/m 7,8 km/h N -0,4 C 10,1 C 22,9 km/h
23.02.2014 15:00 11,0 C 45 % 1023,2 hPa 0,0 l/m 6,4 km/h N -0,5 C 10,8 C 18,1 km/h
23.02.2014 16:00 10,4 C 44 % 1023,4 hPa 0,0 l/m 5,2 km/h N -1,2 C 10,3 C 14,5 km/h
23.02.2014 17:00 9,3 C 46 % 1023,7 hPa 0,0 l/m 1,5 km/h N -1,6 C 9,3 C 6,8 km/h
23.02.2014 18:00 7,1 C 51 % 1024,2 hPa 0,0 l/m 0,2 km/h N -2,4 C 7,1 C 1,6 km/h
23.02.2014 19:00 4,2 C 58 % 1024,6 hPa 0,0 l/m 0,0 km/h N -3,4 C 4,2 C 1,2 km/h
23.02.2014 20:00 3,3 C 67 % 1024,8 hPa 0,0 l/m 0,1 km/h N -2,3 C 3,3 C 2,4 km/h
23.02.2014 21:00 2,2 C 70 % 1025,0 hPa 0,0 l/m 0,1 km/h N -2,6 C 2,2 C 0,8 km/h
23.02.2014 22:00 1,1 C 75 % 1025,0 hPa 0,0 l/m 0,0 km/h N -2,9 C 1,1 C 0,8 km/h
23.02.2014 23:00 0,6 C 79 % 1025,0 hPa 0,0 l/m 0,3 km/h N -2,7 C 0,6 C 2,8 km/h
Min-Datum _ 18.02.14 23.02.14 21.02.14 - 17.02.14 - 18.02.14 18.02.14 17.02.14
_ Min-Zeit 07:15 14:00 14:45 - 00:15 - 07:15 07:15 00:15
Minimum _ -1,9 C 44 % 1010,0 hPa - 0,0 km/h - -4,1 C -1,9 C 0,0 km/h
Max-Datum _ 20.02.14 18.02.14 23.02.14 19.02.14 23.02.14 - 21.02.14 20.02.14 22.02.14
_ Max-Zeit 13:45 03:15 21:45 19:45 08:15 - 14:15 13:45 12:30
Maximum _ 12,3 C 92 % 1025,1 hPa 1,8 l/m 12,6 km/h
N
- 6,4 C 12,3 C 29,0 km/h
N
Durchschnitt _ 5,8 C 77 % 1017,1 hPa #4,7 l/m 3,5 km/h N 2,0 C 5,3 C 10,2 km/h